Time;durP1;ratioP1;P1;durP2;ratioP2;P2;SDS_P1;SDS_P2;PMS_P1;PMS_P2;Temp;Humidity;BMP_temperature;BMP_pressure;BME280_temperature;BME280_humidity;BME280_pressure;Samples;Min_cycle;Max_cycle;Signal;HPM_P1;HPM_P2
2021/07/20 00:01:41;;;;;;;12.85;9.70;;;;;;;22.49;86.59;98799.31;1734429;82;21470;-66
2021/07/20 00:04:08;;;;;;;12.23;9.65;;;;;;;22.44;86.61;98798.94;1734163;82;21963;-66
2021/07/20 00:06:34;;;;;;;13.90;10.25;;;;;;;22.42;86.74;98806.21;1734316;82;21079;-66
2021/07/20 00:09:02;;;;;;;13.78;10.43;;;;;;;22.39;86.85;98797.24;1734131;82;21119;-66
2021/07/20 00:11:29;;;;;;;11.83;9.65;;;;;;;22.36;86.95;98798.07;1734452;82;21047;-66
2021/07/20 00:13:55;;;;;;;11.93;10.08;;;;;;;22.32;87.20;98801.52;1734578;82;20959;-66
2021/07/20 00:16:22;;;;;;;12.25;9.53;;;;;;;22.29;87.43;98803.98;1734218;82;21003;-66
2021/07/20 00:18:48;;;;;;;11.45;9.85;;;;;;;22.26;87.57;98804.28;1734502;82;21471;-66
2021/07/20 00:21:15;;;;;;;12.55;10.30;;;;;;;22.23;87.70;98801.94;1734313;82;21157;-66
2021/07/20 00:23:41;;;;;;;15.75;9.68;;;;;;;22.22;87.97;98797.62;1734225;82;20988;-66
2021/07/20 00:26:09;;;;;;;15.35;9.95;;;;;;;22.22;88.07;98802.08;1734321;82;21510;-66
2021/07/20 00:28:36;;;;;;;14.98;9.63;;;;;;;22.20;88.16;98801.41;1734583;82;20967;-66
2021/07/20 00:31:03;;;;;;;13.05;9.78;;;;;;;22.14;88.34;98797.57;1734288;82;20987;-66
2021/07/20 00:33:29;;;;;;;15.43;10.23;;;;;;;22.09;88.62;98801.66;1734161;82;21135;-66
2021/07/20 00:35:56;;;;;;;12.10;9.95;;;;;;;22.04;88.73;98795.48;1734313;82;20960;-66
2021/07/20 00:38:23;;;;;;;13.35;9.83;;;;;;;22.02;88.86;98795.29;1734326;82;20951;-66
2021/07/20 00:40:51;;;;;;;11.78;10.58;;;;;;;22.00;89.01;98797.59;1734370;82;21487;-66
2021/07/20 00:43:17;;;;;;;10.63;9.30;;;;;;;21.99;89.09;98810.95;1734217;82;20955;-66
2021/07/20 00:45:45;;;;;;;11.57;10.25;;;;;;;21.97;89.28;98811.63;1734355;82;21879;-66
2021/07/20 00:48:12;;;;;;;11.10;9.38;;;;;;;21.96;89.35;98817.41;1734306;82;21039;-66
2021/07/20 00:50:43;;;;;;;12.60;9.38;;;;;;;21.96;89.46;98812.12;1734293;82;21091;-66
2021/07/20 00:53:12;;;;;;;12.95;9.15;;;;;;;21.96;89.42;98814.77;1734228;82;21020;-66
2021/07/20 00:55:40;;;;;;;11.08;8.88;;;;;;;21.96;89.53;98812.61;1734560;82;21054;-66
2021/07/20 00:58:08;;;;;;;11.93;8.60;;;;;;;21.96;89.68;98814.77;1734280;82;21138;-66
2021/07/20 01:00:35;;;;;;;9.00;8.13;;;;;;;21.92;89.97;98817.37;1734105;82;20955;-66
2021/07/20 01:03:06;;;;;;;9.68;8.68;;;;;;;21.91;90.28;98814.88;1734185;82;20971;-66
2021/07/20 01:05:34;;;;;;;11.03;8.20;;;;;;;21.92;90.44;98811.23;1715383;82;21423;-66
2021/07/20 01:08:05;;;;;;;13.83;9.00;;;;;;;21.93;90.53;98802.31;1716337;82;20987;-66
2021/07/20 01:10:33;;;;;;;9.33;8.43;;;;;;;21.92;90.59;98808.59;1747739;82;21149;-66
2021/07/20 01:13:00;;;;;;;9.05;8.18;;;;;;;21.89;90.68;98794.33;1747709;82;21018;-66
2021/07/20 01:15:27;;;;;;;10.25;7.80;;;;;;;21.88;90.73;98803.25;1720007;82;20947;-66
2021/07/20 01:17:56;;;;;;;9.33;7.97;;;;;;;21.87;90.72;98797.61;1747704;82;20963;-66
2021/07/20 01:20:27;;;;;;;12.53;8.00;;;;;;;21.85;90.82;98794.28;1747654;82;21006;-66
2021/07/20 01:23:11;;;;;;;10.03;8.30;;;;;;;21.83;90.99;98792.28;1747902;82;21135;-66
2021/07/20 01:25:39;;;;;;;12.47;7.83;;;;;;;21.82;90.96;98793.26;1747327;82;21042;-66
2021/07/20 01:28:07;;;;;;;10.40;8.48;;;;;;;21.79;91.01;98790.91;1747887;82;20986;-66
2021/07/20 01:30:35;;;;;;;10.18;8.13;;;;;;;21.76;90.85;98783.30;1747669;82;20961;-66
2021/07/20 01:33:03;;;;;;;10.72;9.00;;;;;;;21.72;90.97;98778.79;1747918;82;21014;-66
2021/07/20 01:35:30;;;;;;;9.83;8.25;;;;;;;21.66;90.65;98772.77;1747725;82;21785;-66
2021/07/20 01:37:59;;;;;;;12.23;8.63;;;;;;;21.59;90.53;98766.40;1720222;82;21013;-65
2021/07/20 01:40:26;;;;;;;10.13;9.13;;;;;;;21.50;90.59;98767.31;1747594;82;20963;-66
2021/07/20 01:42:53;;;;;;;11.85;9.28;;;;;;;21.43;90.87;98770.20;1747676;82;20942;-66
2021/07/20 01:45:22;;;;;;;11.15;9.60;;;;;;;21.36;91.39;98776.60;1720533;82;21530;-66
2021/07/20 01:47:50;;;;;;;14.10;8.90;;;;;;;21.30;92.19;98779.34;1747775;82;21538;-66
2021/07/20 01:50:18;;;;;;;10.05;9.00;;;;;;;21.26;92.49;98784.58;1747715;82;20971;-66
2021/07/20 01:52:46;;;;;;;11.88;8.35;;;;;;;21.23;92.61;98794.61;1720295;82;21050;-66
2021/07/20 01:55:15;;;;;;;10.15;8.28;;;;;;;21.20;92.72;98789.61;1748114;82;20991;-66
2021/07/20 01:57:42;;;;;;;8.95;8.00;;;;;;;21.17;92.79;98793.88;1748133;82;21054;-65
2021/07/20 02:00:16;;;;;;;10.18;7.92;;;;;;;21.13;92.99;98788.03;1745051;82;21091;-66
2021/07/20 02:03:19;;;;;;;12.23;8.18;;;;;;;21.10;93.17;98787.00;1746845;82;21041;-65
2021/07/20 02:08:43;;;;;;;10.72;8.63;;;;;;;21.07;93.85;98769.27;1745381;82;21479;-66
2021/07/20 02:11:17;;;;;;;12.58;8.03;;;;;;;21.04;93.93;98777.00;1747845;82;21010;-66
2021/07/20 02:13:56;;;;;;;9.50;8.38;;;;;;;21.04;94.05;98776.17;1747710;82;21163;-66
2021/07/20 02:16:45;;;;;;;9.93;8.25;;;;;;;21.03;93.94;98779.30;1747949;82;21055;-66
2021/07/20 02:19:24;;;;;;;10.60;7.58;;;;;;;21.02;93.83;98782.92;1748036;82;21430;-66
2021/07/20 02:21:57;;;;;;;10.23;7.70;;;;;;;21.03;94.00;98784.59;1747488;82;20994;-66
2021/07/20 02:24:32;;;;;;;9.90;8.88;;;;;;;21.03;93.80;98785.91;1747891;82;20998;-67
2021/07/20 02:27:01;;;;;;;9.60;7.70;;;;;;;21.05;93.79;98792.38;1748261;82;21098;-66
2021/07/20 02:29:28;;;;;;;8.03;6.90;;;;;;;21.05;93.78;98796.34;1747956;82;21085;-66
2021/07/20 02:31:57;;;;;;;9.75;7.58;;;;;;;21.07;93.62;98798.35;1748020;82;21431;-66
2021/07/20 02:34:26;;;;;;;15.23;8.43;;;;;;;21.07;93.57;98792.58;1747987;82;21069;-66
2021/07/20 02:36:56;;;;;;;9.18;7.97;;;;;;;21.07;93.48;98793.90;1747794;82;21010;-67
2021/07/20 02:39:24;;;;;;;14.38;8.10;;;;;;;21.07;93.44;98799.19;1747931;82;21834;-66
2021/07/20 02:41:53;;;;;;;8.80;7.87;;;;;;;21.08;93.03;98800.86;1747665;82;21050;-66
2021/07/20 02:44:23;;;;;;;11.60;9.18;;;;;;;21.09;92.73;98804.33;1747831;82;21478;-66
2021/07/20 02:46:49;;;;;;;11.97;9.43;;;;;;;21.08;92.51;98808.78;1747745;82;21042;-66
2021/07/20 02:49:16;;;;;;;10.75;8.38;;;;;;;21.09;92.17;98813.09;1747935;82;20963;-66
2021/07/20 02:51:47;;;;;;;9.88;8.65;;;;;;;21.10;91.68;98804.68;1747766;82;21202;-66
2021/07/20 02:54:16;;;;;;;12.05;9.58;;;;;;;21.08;91.24;98799.53;1720486;82;21423;-66
2021/07/20 02:56:44;;;;;;;13.13;9.18;;;;;;;21.10;91.02;98798.06;1748069;82;20995;-66
2021/07/20 02:59:13;;;;;;;13.25;9.28;;;;;;;21.11;90.59;98804.53;1747679;82;21053;-66
2021/07/20 03:01:44;;;;;;;10.45;9.35;;;;;;;21.12;90.34;98811.48;1745045;82;20942;-66
2021/07/20 03:04:11;;;;;;;14.07;9.78;;;;;;;21.18;90.04;98809.56;1747707;82;21083;-66
2021/07/20 03:06:43;;;;;;;13.68;9.05;;;;;;;21.30;89.83;98808.44;1747866;82;21415;-66
2021/07/20 03:09:12;;;;;;;;;;;;;;;21.41;88.85;98804.74;1749363;82;21502;-66
2021/07/20 03:11:43;;;;;;;11.80;8.85;;;;;;;21.49;88.06;98797.40;1734399;82;20132;-66
2021/07/20 03:14:15;;;;;;;12.95;9.63;;;;;;;21.52;87.67;98811.66;1734274;82;37338;-66
2021/07/20 03:16:45;;;;;;;;;;;;;;;21.60;87.27;98811.73;1736073;82;21224;-67
2021/07/20 03:19:13;;;;;;;11.33;9.43;;;;;;;21.88;87.17;98809.38;1734287;82;20132;-66
2021/07/20 03:21:41;;;;;;;13.68;9.23;;;;;;;22.30;85.64;98804.81;1734384;82;21063;-66
2021/07/20 03:24:08;;;;;;;12.20;10.00;;;;;;;22.78;83.70;98804.32;1734215;82;21082;-66
2021/07/20 03:26:35;;;;;;;11.63;10.05;;;;;;;23.30;81.74;98796.30;1734314;82;21054;-66
2021/07/20 03:29:05;;;;;;;11.03;9.38;;;;;;;23.85;79.17;98801.93;1734260;82;21144;-67
2021/07/20 03:31:34;;;;;;;13.32;9.55;;;;;;;24.34;76.02;98800.17;1714944;82;21539;-66
2021/07/20 03:34:02;;;;;;;10.03;8.73;;;;;;;24.76;73.81;98800.44;1734515;82;21011;-66
2021/07/20 03:36:31;;;;;;;10.78;9.40;;;;;;;25.14;71.89;98799.35;1732995;82;21055;-67
2021/07/20 03:38:59;;;;;;;13.93;10.43;;;;;;;25.52;70.72;98801.16;1734234;82;21109;-67
2021/07/20 03:41:27;;;;;;;10.18;9.08;;;;;;;25.98;68.66;98807.91;1734756;82;21144;-67
2021/07/20 03:43:54;;;;;;;10.98;9.50;;;;;;;26.37;66.87;98810.45;1734496;82;20939;-67
2021/07/20 03:46:23;;;;;;;10.13;9.05;;;;;;;26.61;65.56;98812.87;1734263;82;20991;-67
2021/07/20 03:48:51;;;;;;;12.93;9.83;;;;;;;26.72;64.42;98817.78;1734233;82;21478;-67
2021/07/20 03:51:23;;;;;;;9.68;8.68;;;;;;;26.79;63.56;98816.52;1733407;82;21055;-67
2021/07/20 03:53:49;;;;;;;9.95;8.95;;;;;;;26.86;63.00;98816.63;1734395;82;21821;-67
2021/07/20 03:56:16;;;;;;;10.72;9.10;;;;;;;26.89;63.37;98822.44;1734590;82;20987;-67
2021/07/20 03:58:44;;;;;;;15.30;9.75;;;;;;;27.13;62.28;98823.21;1733652;82;20982;-67
2021/07/20 04:01:13;;;;;;;10.98;9.65;;;;;;;27.40;61.41;98827.86;1734237;82;21048;-67
2021/07/20 04:03:40;;;;;;;12.70;8.93;;;;;;;27.66;60.36;98834.08;1734222;82;21066;-67
2021/07/20 04:06:10;;;;;;;14.45;9.80;;;;;;;27.89;59.19;98825.39;1734460;82;21110;-67
2021/07/20 04:08:57;;;;;;;11.15;9.38;;;;;;;28.03;58.46;98827.69;1653529;86;21011;-67
2021/07/20 04:11:25;;;;;;;12.03;10.18;;;;;;;28.16;58.35;98833.18;1646513;86;21038;-67
2021/07/20 04:13:53;;;;;;;14.75;10.45;;;;;;;28.44;57.46;98838.59;1676685;82;20962;-67
2021/07/20 04:16:23;;;;;;;15.48;10.80;;;;;;;28.78;56.46;98841.83;1727127;82;21506;-67
2021/07/20 04:18:49;;;;;;;11.75;10.53;;;;;;;29.10;55.89;98844.45;1727007;83;21799;-66
2021/07/20 04:21:18;;;;;;;10.80;9.83;;;;;;;29.46;54.46;98842.91;1726781;82;21436;-66
2021/07/20 04:23:44;;;;;;;12.75;10.05;;;;;;;29.73;53.20;98841.99;1726953;83;21459;-67
2021/07/20 04:26:14;;;;;;;13.58;10.10;;;;;;;29.76;52.81;98846.12;1725927;82;20991;-67
2021/07/20 04:28:42;;;;;;;13.50;10.00;;;;;;;29.82;53.03;98852.00;1726935;82;21054;-68
2021/07/20 04:31:11;;;;;;;11.90;9.70;;;;;;;29.95;52.32;98858.77;1726852;82;21057;-66
2021/07/20 04:33:38;;;;;;;11.80;9.90;;;;;;;30.09;52.25;98856.45;1726886;82;21081;-65
2021/07/20 04:36:23;;;;;;;11.57;10.23;;;;;;;30.17;51.83;98861.31;1727136;83;20958;-65
2021/07/20 04:38:51;;;;;;;13.32;9.60;;;;;;;30.36;51.80;98854.63;1726605;82;21041;-66
2021/07/20 04:41:20;;;;;;;13.75;9.35;;;;;;;30.62;50.82;98855.16;1726980;83;21077;-65
2021/07/20 04:43:47;;;;;;;11.38;9.53;;;;;;;30.62;50.03;98860.53;1726977;83;21802;-65
2021/07/20 04:46:15;;;;;;;12.30;9.50;;;;;;;30.63;49.86;98863.53;1727295;83;20952;-67
2021/07/20 04:48:45;;;;;;;12.50;9.55;;;;;;;30.67;49.72;98858.06;1726935;83;21034;-66
2021/07/20 04:51:12;;;;;;;15.98;10.25;;;;;;;30.84;49.58;98847.72;1726888;82;20999;-66
2021/07/20 04:53:40;;;;;;;16.12;12.80;;;;;;;31.07;49.10;98860.70;1726788;83;21005;-66
2021/07/20 04:56:07;;;;;;;11.40;9.65;;;;;;;31.33;48.79;98856.64;1726898;82;21166;-66
2021/07/20 04:58:35;;;;;;;14.53;9.83;;;;;;;31.57;47.77;98857.80;1726868;82;20931;-66
2021/07/20 05:01:04;;;;;;;11.65;9.73;;;;;;;31.59;47.42;98854.88;1726858;82;21430;-67
2021/07/20 05:03:31;;;;;;;10.25;9.20;;;;;;;31.54;47.77;98851.50;1743027;82;21112;-67
2021/07/20 05:05:58;;;;;;;10.43;9.35;;;;;;;31.58;46.60;98848.67;1691487;82;21597;-66
2021/07/20 05:08:28;;;;;;;11.12;9.28;;;;;;;31.49;46.47;98854.83;1720918;82;21121;-66
2021/07/20 05:10:57;;;;;;;11.20;9.73;;;;;;;31.39;46.40;98847.71;1742989;81;20953;-66
2021/07/20 05:13:26;;;;;;;10.58;9.35;;;;;;;31.19;46.95;98855.01;1741880;82;20950;-66
2021/07/20 05:15:59;;;;;;;12.78;8.93;;;;;;;31.11;47.63;98853.39;1723411;82;20965;-66
2021/07/20 05:18:27;;;;;;;15.25;10.28;;;;;;;31.21;47.27;98862.86;1737278;82;20943;-65
2021/07/20 05:20:59;;;;;;;11.10;9.98;;;;;;;31.32;47.43;98863.05;1716017;82;21201;-65
2021/07/20 05:23:27;;;;;;;10.43;9.33;;;;;;;31.40;46.64;98860.11;1742653;82;20933;-64
2021/07/20 05:25:58;;;;;;;11.57;10.25;;;;;;;31.28;47.10;98853.76;1742096;82;21004;-64
2021/07/20 05:28:25;;;;;;;11.30;10.15;;;;;;;31.26;47.14;98861.72;1742226;81;21015;-65
2021/07/20 05:30:57;;;;;;;10.93;9.83;;;;;;;31.33;47.08;98860.67;1723220;82;21040;-65
2021/07/20 05:33:24;;;;;;;11.43;9.35;;;;;;;31.47;46.46;98862.78;1740281;82;21121;-66
2021/07/20 05:35:57;;;;;;;9.68;8.68;;;;;;;31.51;46.43;98858.13;1739361;82;21515;-65
2021/07/20 05:38:26;;;;;;;;;;;;;;;31.55;46.17;98849.13;1743006;82;20991;-65
2021/07/20 05:40:57;;;;;;;10.98;9.13;;;;;;;31.69;46.05;98852.59;1737558;82;20143;-66
2021/07/20 05:43:27;;;;;;;10.18;9.18;;;;;;;31.90;45.51;98848.77;1735924;82;21435;-65
2021/07/20 05:45:54;;;;;;;11.80;9.38;;;;;;;32.05;45.28;98847.95;1712487;83;21114;-65
2021/07/20 05:48:22;;;;;;;16.77;10.53;;;;;;;32.14;45.25;98842.11;1741040;82;21401;-65
2021/07/20 05:50:54;;;;;;;14.83;11.40;;;;;;;32.12;45.05;98842.84;1737429;82;21010;-65
2021/07/20 05:53:30;;;;;;;12.28;11.03;;;;;;;32.11;45.49;98841.70;1725741;82;20955;-65
2021/07/20 05:56:03;;;;;;;13.18;10.60;;;;;;;32.08;45.42;98845.66;1746493;81;21046;-65
2021/07/20 05:58:30;;;;;;;12.68;11.55;;;;;;;32.04;45.90;98841.74;1741223;82;21282;-65
2021/07/20 06:01:02;;;;;;;19.65;11.20;;;;;;;31.98;46.16;98842.59;1739433;82;21604;-65
2021/07/20 06:03:30;;;;;;;12.87;10.73;;;;;;;32.00;46.45;98847.24;1737474;82;21078;-65
2021/07/20 06:05:57;;;;;;;12.10;10.95;;;;;;;32.03;46.35;98844.13;1733448;82;21038;-66
2021/07/20 06:08:26;;;;;;;12.40;11.05;;;;;;;31.85;46.27;98848.06;1732531;82;21085;-66
2021/07/20 06:10:57;;;;;;;12.88;11.57;;;;;;;31.54;46.99;98842.61;1739873;82;21242;-65
2021/07/20 06:13:30;;;;;;;18.37;12.43;;;;;;;31.33;47.67;98839.17;1750261;82;20939;-65
2021/07/20 06:15:58;;;;;;;13.18;11.65;;;;;;;31.26;48.51;98834.33;1750523;82;21533;-67
2021/07/20 06:18:25;;;;;;;12.63;11.43;;;;;;;31.26;48.89;98828.96;1750953;82;20974;-67
2021/07/20 06:20:59;;;;;;;11.97;10.68;;;;;;;31.22;48.58;98820.19;1750550;82;21006;-67
2021/07/20 06:23:34;;;;;;;13.40;10.40;;;;;;;31.08;48.33;98824.23;1749868;82;21411;-67
2021/07/20 06:26:01;;;;;;;11.03;9.98;;;;;;;31.00;48.60;98828.47;1749324;82;21014;-68
2021/07/20 06:28:27;;;;;;;11.43;10.32;;;;;;;30.86;48.93;98839.45;1750612;82;20943;-68
2021/07/20 06:30:54;;;;;;;11.38;10.13;;;;;;;30.63;49.45;98835.86;1750418;82;22073;-67
2021/07/20 06:33:21;;;;;;;9.55;8.65;;;;;;;30.56;49.93;98842.59;1749428;81;21493;-67
2021/07/20 06:35:49;;;;;;;10.05;8.98;;;;;;;30.47;49.51;98845.13;1750421;82;21145;-66
2021/07/20 06:38:18;;;;;;;12.93;9.50;;;;;;;30.23;49.91;98839.84;1750493;82;20939;-66
2021/07/20 06:40:45;;;;;;;9.53;8.58;;;;;;;29.96;50.33;98847.52;1750851;82;20947;-67
2021/07/20 06:43:13;;;;;;;9.85;8.40;;;;;;;29.79;50.61;98847.04;1746324;82;21074;-68
2021/07/20 06:45:42;;;;;;;10.10;8.28;;;;;;;29.70;50.95;98849.60;1701406;83;20950;-68
2021/07/20 06:48:14;;;;;;;9.98;8.50;;;;;;;29.60;51.26;98841.10;1746423;81;22167;-66
2021/07/20 06:50:42;;;;;;;8.10;7.35;;;;;;;29.54;51.00;98845.94;1749209;81;21345;-65
2021/07/20 06:53:11;;;;;;;9.98;7.95;;;;;;;29.45;50.75;98835.89;1750507;81;21492;-65
2021/07/20 06:55:53;;;;;;;10.25;8.35;;;;;;;29.39;50.87;98846.03;1750292;82;21059;-65
2021/07/20 06:58:21;;;;;;;10.15;8.93;;;;;;;29.33;51.42;98840.15;1750695;82;21032;-66
2021/07/20 07:00:56;;;;;;;8.60;7.80;;;;;;;29.28;51.44;98839.91;1750764;81;21787;-66
2021/07/20 07:03:54;;;;;;;8.18;7.37;;;;;;;29.30;51.16;98841.87;1750509;82;21592;-66
2021/07/20 07:06:20;;;;;;;8.50;7.65;;;;;;;29.26;51.43;98829.91;1750602;82;21036;-67
2021/07/20 07:08:47;;;;;;;9.05;7.55;;;;;;;29.16;51.30;98830.80;1750378;81;20992;-66
2021/07/20 07:11:15;;;;;;;9.65;7.87;;;;;;;29.04;51.75;98834.01;1740132;82;21116;-67
2021/07/20 07:13:41;;;;;;;9.03;8.03;;;;;;;28.92;52.82;98832.09;1712539;83;21195;-67
2021/07/20 07:16:08;;;;;;;8.98;7.35;;;;;;;28.87;53.14;98831.33;1694643;84;21730;-67
2021/07/20 07:18:35;;;;;;;8.75;7.95;;;;;;;28.92;52.91;98835.59;1696346;84;20999;-66
2021/07/20 07:21:02;;;;;;;9.28;8.38;;;;;;;28.96;52.62;98831.51;1648312;84;21049;-67
2021/07/20 07:23:29;;;;;;;9.10;8.20;;;;;;;28.98;52.64;98825.42;1697112;84;21594;-67
2021/07/20 07:25:58;;;;;;;10.63;8.40;;;;;;;28.99;52.44;98824.91;1697502;84;21122;-67
2021/07/20 07:28:24;;;;;;;7.75;7.12;;;;;;;29.04;52.67;98816.61;1698128;84;21422;-66
2021/07/20 07:30:51;;;;;;;8.95;8.05;;;;;;;29.09;52.63;98815.51;1715203;82;21069;-66
2021/07/20 07:33:18;;;;;;;9.03;8.18;;;;;;;29.09;52.53;98813.34;1721913;82;21261;-67
2021/07/20 07:35:46;;;;;;;9.40;7.80;;;;;;;29.05;52.74;98810.23;1693986;84;21166;-68
2021/07/20 07:38:14;;;;;;;8.88;7.58;;;;;;;29.01;52.29;98800.10;1695323;83;21120;-67
2021/07/20 07:40:41;;;;;;;8.18;7.37;;;;;;;28.97;52.68;98798.88;1697871;84;21005;-66
2021/07/20 07:43:07;;;;;;;10.05;7.42;;;;;;;28.94;52.39;98797.41;1697907;84;21458;-67
2021/07/20 07:45:36;;;;;;;8.73;7.50;;;;;;;28.86;52.20;98800.23;1697950;83;20994;-67
2021/07/20 07:48:04;;;;;;;8.00;7.20;;;;;;;28.81;51.93;98810.70;1697875;83;21050;-68
2021/07/20 07:50:31;;;;;;;9.95;7.83;;;;;;;28.76;52.56;98797.89;1697896;84;21987;-67
2021/07/20 07:52:57;;;;;;;9.43;8.10;;;;;;;28.75;52.16;98800.77;1697583;84;21626;-67
2021/07/20 07:55:25;;;;;;;9.58;7.22;;;;;;;28.76;52.58;98807.77;1697805;84;21014;-67
2021/07/20 07:57:51;;;;;;;10.55;7.30;;;;;;;28.77;52.28;98805.41;1697009;84;21510;-67
2021/07/20 08:00:20;;;;;;;8.25;7.45;;;;;;;28.78;52.12;98803.02;1697102;84;21030;-67
2021/07/20 08:02:52;;;;;;;8.43;7.72;;;;;;;28.76;52.62;98797.89;1678382;84;21094;-67
2021/07/20 08:05:22;;;;;;;8.73;7.92;;;;;;;28.76;52.63;98791.71;1633862;84;21093;-67
2021/07/20 08:08:02;;;;;;;9.23;8.38;;;;;;;28.74;52.78;98800.45;1700504;83;20958;-67
2021/07/20 08:10:42;;;;;;;9.65;7.92;;;;;;;28.66;53.25;98796.06;1681421;81;21105;-67
2021/07/20 08:13:08;;;;;;;9.25;7.97;;;;;;;28.69;53.29;98794.33;1718742;82;20997;-67
2021/07/20 08:15:37;;;;;;;9.03;8.13;;;;;;;28.74;53.31;98797.26;1747587;82;20985;-66
2021/07/20 08:18:04;;;;;;;10.82;8.28;;;;;;;28.88;53.91;98791.50;1747364;81;21074;-67
2021/07/20 08:20:33;;;;;;;9.05;8.15;;;;;;;29.02;53.46;98792.39;1746143;82;20986;-68
2021/07/20 08:22:59;;;;;;;11.70;8.30;;;;;;;29.15;52.71;98795.16;1745764;82;21073;-67
2021/07/20 08:25:32;;;;;;;8.78;7.95;;;;;;;29.26;52.07;98800.44;1747555;81;20941;-67
2021/07/20 08:28:17;;;;;;;8.63;7.85;;;;;;;29.34;52.27;98795.75;1747701;81;21656;-67
2021/07/20 08:30:47;;;;;;;9.25;8.35;;;;;;;29.42;51.29;98801.46;1731317;82;20964;-67
2021/07/20 08:33:21;;;;;;;8.80;7.87;;;;;;;29.38;50.75;98800.17;1747122;82;21139;-67
2021/07/20 08:35:53;;;;;;;9.43;8.45;;;;;;;29.37;50.73;98801.23;1746303;82;21428;-67
2021/07/20 08:38:19;;;;;;;9.23;8.43;;;;;;;29.43;50.78;98797.77;1720017;82;21049;-68
2021/07/20 08:41:09;;;;;;;10.50;8.88;;;;;;;29.47;50.64;98797.67;1746248;82;21832;-68
2021/07/20 08:44:14;;;;;;;9.65;8.75;;;;;;;29.54;50.72;98797.71;1746103;80;21233;-68
2021/07/20 08:46:46;;;;;;;9.35;8.55;;;;;;;29.63;50.18;98791.95;1733700;82;21058;-68
2021/07/20 08:49:42;;;;;;;9.13;8.18;;;;;;;29.81;49.81;98784.67;1744395;82;21419;-69
2021/07/20 08:52:18;;;;;;;10.68;8.23;;;;;;;29.92;49.16;98789.45;1742514;82;21037;-68
2021/07/20 08:54:57;;;;;;;11.18;9.03;;;;;;;29.87;48.92;98786.55;1741514;82;21472;-68
2021/07/20 08:58:05;;;;;;;9.93;9.00;;;;;;;29.71;48.84;98772.19;1755786;81;21010;-67
2021/07/20 09:00:42;;;;;;;12.73;9.58;;;;;;;29.60;48.74;98777.61;1755444;81;21074;-68
2021/07/20 09:03:32;;;;;;;9.00;8.20;;;;;;;29.56;49.89;98775.05;1747497;82;21069;-66
2021/07/20 09:06:05;;;;;;;12.93;9.15;;;;;;;29.58;48.55;98772.97;1747595;82;21006;-66
2021/07/20 09:08:56;;;;;;;10.48;8.23;;;;;;;29.54;48.15;98773.08;1747749;82;21019;-66
2021/07/20 09:11:48;;;;;;;10.60;8.60;;;;;;;29.54;47.80;98759.69;1744289;82;22053;-67
2021/07/20 09:14:39;;;;;;;11.00;9.90;;;;;;;29.54;48.71;98759.69;1733963;82;20963;-67
2021/07/20 09:17:16;;;;;;;11.03;9.88;;;;;;;29.62;49.88;98752.78;1734506;82;20972;-68
2021/07/20 09:20:09;;;;;;;15.20;9.83;;;;;;;29.72;49.49;98754.57;1728436;82;21008;-66
2021/07/20 09:22:43;;;;;;;9.83;8.83;;;;;;;29.78;48.96;98756.93;1741033;82;21055;-67
2021/07/20 09:25:15;;;;;;;10.98;9.68;;;;;;;29.78;48.43;98757.75;1737610;82;21054;-67
2021/07/20 09:28:02;;;;;;;10.15;9.08;;;;;;;29.80;48.67;98750.85;1744419;82;20999;-66
2021/07/20 09:30:33;;;;;;;10.45;9.50;;;;;;;29.85;48.28;98744.89;1712904;82;20964;-67
2021/07/20 09:33:25;;;;;;;11.73;9.08;;;;;;;29.90;47.71;98741.91;1744321;82;21483;-68
2021/07/20 09:36:04;;;;;;;9.68;8.80;;;;;;;29.95;47.64;98746.16;1745039;82;21244;-69
2021/07/20 09:39:00;;;;;;;9.10;8.30;;;;;;;30.05;47.40;98736.37;1737207;82;20995;-67
2021/07/20 09:41:40;;;;;;;9.30;8.53;;;;;;;30.11;46.87;98738.24;1727095;82;21245;-66
2021/07/20 09:44:42;;;;;;;9.88;8.88;;;;;;;30.30;46.46;98732.56;1726997;82;21091;-67
2021/07/20 09:47:26;;;;;;;10.93;8.33;;;;;;;30.43;46.19;98733.88;1727519;83;20998;-66
2021/07/20 09:50:10;;;;;;;9.73;8.83;;;;;;;30.55;46.22;98731.39;1726831;82;21036;-67
2021/07/20 09:53:09;;;;;;;14.85;8.23;;;;;;;30.59;46.13;98721.38;1726715;82;21411;-67
2021/07/20 09:55:59;;;;;;;9.93;8.78;;;;;;;30.66;47.32;98722.72;1726815;83;20963;-66
2021/07/20 09:58:46;;;;;;;9.28;8.38;;;;;;;30.76;46.48;98726.63;1727182;82;20955;-67
2021/07/20 10:01:38;;;;;;;9.45;8.60;;;;;;;30.83;45.21;98718.53;1726793;82;21038;-67
2021/07/20 10:04:12;;;;;;;11.12;8.25;;;;;;;30.89;45.26;98710.98;1726812;83;21224;-67
2021/07/20 10:06:54;;;;;;;10.70;9.00;;;;;;;30.84;45.02;98709.45;1726870;82;20950;-65
2021/07/20 10:09:29;;;;;;;8.98;7.95;;;;;;;30.68;45.58;98705.89;1726300;82;20987;-66
2021/07/20 10:12:27;;;;;;;10.15;7.78;;;;;;;30.60;45.35;98710.12;1721852;81;20967;-66
2021/07/20 10:15:11;;;;;;;8.00;7.30;;;;;;;30.56;45.80;98711.09;1726800;82;20950;-66
2021/07/20 10:17:53;;;;;;;7.65;6.62;;;;;;;30.57;46.35;98702.53;1738254;82;21473;-66
2021/07/20 10:20:41;;;;;;;;;;;;;;;30.64;46.82;98706.00;1730364;82;21366;-66
2021/07/20 10:23:27;;;;;;;9.13;8.13;;;;;;;30.75;45.76;98708.88;1750977;80;20218;-65
2021/07/20 10:26:18;;;;;;;8.45;7.65;;;;;;;30.77;45.60;98705.46;1737341;82;20959;-67
2021/07/20 10:29:15;;;;;;;8.93;7.42;;;;;;;30.71;45.96;98704.13;1733068;82;21006;-66
2021/07/20 10:31:54;;;;;;;11.60;7.25;;;;;;;30.71;45.69;98702.27;1707192;82;21888;-66
2021/07/20 10:34:25;;;;;;;9.23;8.20;;;;;;;30.73;45.15;98700.72;1736252;82;21050;-66
2021/07/20 10:37:05;;;;;;;7.75;7.05;;;;;;;30.75;45.30;98691.94;1741890;82;21019;-66
2021/07/20 10:39:44;;;;;;;9.03;7.25;;;;;;;30.82;44.78;98696.23;1735838;82;20991;-66
2021/07/20 10:42:31;;;;;;;8.53;7.72;;;;;;;30.81;44.81;98691.89;1734933;82;21500;-67
2021/07/20 10:45:05;;;;;;;8.88;6.92;;;;;;;30.75;44.92;98685.23;1745328;82;21714;-67
2021/07/20 10:48:04;;;;;;;8.88;7.00;;;;;;;30.69;44.74;98682.86;1742954;82;21042;-67
2021/07/20 10:50:56;;;;;;;8.23;7.17;;;;;;;30.66;45.02;98688.65;1739638;82;20999;-66
2021/07/20 10:53:48;;;;;;;7.30;6.58;;;;;;;30.65;44.44;98684.83;1715638;83;21764;-66
2021/07/20 10:56:59;;;;;;;7.65;6.95;;;;;;;30.66;44.27;98687.30;1715359;83;21480;-66
2021/07/20 10:59:38;;;;;;;8.18;7.00;;;;;;;30.65;43.97;98682.15;1715342;83;21436;-66
2021/07/20 11:02:34;;;;;;;7.72;7.03;;;;;;;30.77;43.99;98685.33;1725420;82;20939;-65
2021/07/20 11:05:08;;;;;;;11.68;7.72;;;;;;;30.86;43.96;98679.19;1712470;82;20978;-66
2021/07/20 11:07:47;;;;;;;7.92;7.30;;;;;;;30.95;44.54;98674.41;1739435;82;21039;-66
2021/07/20 11:10:33;;;;;;;8.28;7.30;;;;;;;31.08;44.48;98675.68;1739626;82;20967;-66
2021/07/20 11:13:15;;;;;;;8.48;7.15;;;;;;;31.10;43.87;98660.18;1739793;82;21229;-66
2021/07/20 11:15:43;;;;;;;7.80;7.20;;;;;;;31.07;44.00;98664.63;1741364;82;21109;-67
2021/07/20 11:18:12;;;;;;;8.73;7.78;;;;;;;31.00;44.18;98645.86;1743874;82;21055;-66
2021/07/20 11:20:40;;;;;;;8.35;7.42;;;;;;;31.01;44.92;98652.05;1744629;82;20980;-66
2021/07/20 11:23:06;;;;;;;10.13;7.87;;;;;;;31.11;44.56;98653.80;1738675;81;20955;-66
2021/07/20 11:25:34;;;;;;;9.43;7.40;;;;;;;31.16;44.75;98643.24;1737390;82;21120;-66
2021/07/20 11:28:01;;;;;;;9.18;7.90;;;;;;;31.13;44.92;98642.33;1733340;82;21015;-66
2021/07/20 11:30:32;;;;;;;8.33;7.53;;;;;;;31.12;43.95;98645.53;1721073;82;20985;-67
2021/07/20 11:33:24;;;;;;;9.98;8.05;;;;;;;31.06;43.88;98642.32;1726218;82;21457;-66
2021/07/20 11:35:55;;;;;;;10.25;7.90;;;;;;;30.98;44.44;98635.02;1741354;82;21029;-67
2021/07/20 11:38:25;;;;;;;7.87;7.08;;;;;;;30.97;43.79;98636.91;1741772;81;21126;-67
2021/07/20 11:41:44;;;;;;;9.03;8.05;;;;;;;31.04;43.87;98631.48;1741683;82;20989;-66
2021/07/20 11:44:17;;;;;;;12.53;7.67;;;;;;;31.11;44.37;98629.63;1742639;82;20985;-66
2021/07/20 11:47:10;;;;;;;9.13;8.28;;;;;;;31.20;44.64;98635.03;1738780;82;21447;-66
2021/07/20 11:50:05;;;;;;;9.20;8.30;;;;;;;31.27;45.18;98641.72;1712882;83;21426;-66
2021/07/20 11:53:04;;;;;;;10.45;8.25;;;;;;;31.35;44.35;98638.27;1712218;83;21149;-66
2021/07/20 11:56:02;;;;;;;9.95;8.13;;;;;;;31.40;44.19;98633.56;1719836;82;21489;-66
2021/07/20 11:59:14;;;;;;;10.50;7.78;;;;;;;31.40;44.31;98627.66;1741569;82;20993;-66
2021/07/20 12:02:19;;;;;;;8.93;8.10;;;;;;;31.39;44.99;98631.91;1742031;82;21497;-66